createdAt,value
2022-08-10T00:00:04.577Z,13.06
2022-08-10T00:00:24.617Z,13.03
2022-08-10T00:00:44.691Z,13.06
2022-08-10T00:01:04.793Z,13.01
2022-08-10T00:01:24.885Z,13.03
2022-08-10T00:01:44.968Z,13.04
2022-08-10T00:02:05.062Z,13.06
2022-08-10T00:02:25.033Z,13.04
2022-08-10T00:02:45.084Z,13.06
2022-08-10T00:03:05.166Z,13.04
2022-08-10T00:03:25.194Z,13.06
2022-08-10T00:03:45.249Z,13.03
2022-08-10T00:04:05.348Z,13.01
2022-08-10T00:04:25.409Z,13.01
2022-08-10T00:04:45.450Z,13.01
2022-08-10T00:05:05.538Z,12.98
2022-08-10T00:05:25.584Z,12.98
2022-08-10T00:05:52.749Z,13.01
2022-08-10T00:06:05.700Z,13.01
2022-08-10T00:06:25.750Z,13
2022-08-10T00:06:45.802Z,12.98
2022-08-10T00:07:05.854Z,12.96
2022-08-10T00:07:25.913Z,12.96
2022-08-10T00:07:45.980Z,12.96
2022-08-10T00:08:06.039Z,12.96
2022-08-10T00:08:26.207Z,12.97
2022-08-10T00:08:46.217Z,12.93
2022-08-10T00:09:06.286Z,12.96
2022-08-10T00:09:26.349Z,12.96
2022-08-10T00:09:50.685Z,12.97
2022-08-10T00:10:06.514Z,13
2022-08-10T00:10:26.598Z,12.97
2022-08-10T00:10:46.636Z,12.98
2022-08-10T00:11:06.760Z,12.97
2022-08-10T00:11:26.808Z,12.97
2022-08-10T00:11:46.886Z,12.98
2022-08-10T00:12:06.927Z,12.98
2022-08-10T00:12:53.473Z,12.94
2022-08-10T00:12:54.008Z,12.97
2022-08-10T00:13:07.108Z,12.93
2022-08-10T00:13:27.168Z,12.93
2022-08-10T00:13:47.207Z,12.96
2022-08-10T00:14:07.317Z,12.91
2022-08-10T00:14:27.386Z,12.9
2022-08-10T00:14:47.446Z,12.93
2022-08-10T00:15:07.501Z,12.93
2022-08-10T00:15:52.245Z,12.9
2022-08-10T00:15:53.528Z,12.93
2022-08-10T00:16:07.735Z,12.87
2022-08-10T00:16:27.780Z,12.88
2022-08-10T00:16:47.883Z,12.9
2022-08-10T00:17:07.971Z,12.86
2022-08-10T00:17:28.059Z,12.86
2022-08-10T00:17:48.133Z,12.86
2022-08-10T00:18:08.219Z,12.82
2022-08-10T00:18:34.865Z,12.84
2022-08-10T00:18:48.354Z,12.83
2022-08-10T00:19:08.425Z,12.82
2022-08-10T00:19:28.514Z,12.8
2022-08-10T00:20:03.162Z,12.77
2022-08-10T00:20:08.895Z,12.76
2022-08-10T00:20:28.737Z,12.73
2022-08-10T00:20:48.823Z,12.7
2022-08-10T00:21:08.883Z,12.7
2022-08-10T00:21:28.936Z,12.66
2022-08-10T00:21:48.973Z,12.66
2022-08-10T00:22:09.039Z,12.66
2022-08-10T00:22:29.110Z,12.67
2022-08-10T00:22:57.286Z,12.67
2022-08-10T00:23:09.207Z,12.67
2022-08-10T00:23:29.278Z,12.72
2022-08-10T00:23:49.364Z,12.7
2022-08-10T00:24:09.417Z,12.69
2022-08-10T00:24:29.474Z,12.67
2022-08-10T00:24:49.525Z,12.64
2022-08-10T00:25:09.598Z,12.66
2022-08-10T00:25:29.675Z,12.63
2022-08-10T00:25:49.810Z,12.62
2022-08-10T00:26:09.823Z,12.59
2022-08-10T00:27:49.889Z,12.56
2022-08-10T00:27:52.745Z,12.59
2022-08-10T00:27:57.958Z,12.6
2022-08-10T00:27:58.633Z,12.57
2022-08-10T00:28:02.726Z,12.59
2022-08-10T00:28:10.243Z,12.62
2022-08-10T00:28:30.314Z,12.63
2022-08-10T00:28:50.394Z,12.62
2022-08-10T00:29:10.459Z,12.63
2022-08-10T00:29:30.519Z,12.62
2022-08-10T00:29:50.578Z,12.6
2022-08-10T00:30:10.645Z,12.56
2022-08-10T00:30:30.726Z,12.56
2022-08-10T00:30:50.797Z,12.56
2022-08-10T00:31:10.873Z,12.56
2022-08-10T00:31:30.944Z,12.56
2022-08-10T00:31:57.794Z,12.56
2022-08-10T00:32:11.040Z,12.55
2022-08-10T00:32:31.119Z,12.55
2022-08-10T00:32:51.214Z,12.53
2022-08-10T00:33:11.279Z,12.55
2022-08-10T00:33:31.354Z,12.56
2022-08-10T00:33:51.419Z,12.53
2022-08-10T00:34:11.496Z,12.52
2022-08-10T00:34:31.572Z,12.5
2022-08-10T00:34:51.642Z,12.52
2022-08-10T00:35:11.716Z,12.53
2022-08-10T00:35:31.762Z,12.52
2022-08-10T00:35:51.839Z,12.53
2022-08-10T00:36:11.896Z,12.5
2022-08-10T00:36:31.978Z,12.52
2022-08-10T00:36:52.041Z,12.59
2022-08-10T00:37:12.131Z,12.55
2022-08-10T00:37:32.179Z,12.56
2022-08-10T00:37:57.646Z,12.55
2022-08-10T00:38:12.316Z,12.53
2022-08-10T00:38:32.384Z,12.52
2022-08-10T00:38:52.476Z,12.52
2022-08-10T00:39:13.817Z,12.52
2022-08-10T00:39:35.995Z,12.5
2022-08-10T00:39:52.741Z,12.49
2022-08-10T00:40:12.766Z,12.5
2022-08-10T00:40:37.557Z,12.48
2022-08-10T00:40:52.906Z,12.49
2022-08-10T00:41:12.957Z,12.49
2022-08-10T00:41:33.027Z,12.48
2022-08-10T00:42:02.366Z,12.5
2022-08-10T00:42:13.201Z,12.5
2022-08-10T00:42:33.523Z,12.5
2022-08-10T00:42:53.291Z,12.5
2022-08-10T00:43:13.359Z,12.53
2022-08-10T00:43:33.441Z,12.52
2022-08-10T00:43:53.511Z,12.52
2022-08-10T00:44:13.574Z,12.53
2022-08-10T00:44:33.636Z,12.5
2022-08-10T00:44:53.727Z,12.5
2022-08-10T00:45:13.732Z,12.5
2022-08-10T00:45:33.757Z,12.5
2022-08-10T00:45:59.191Z,12.5
2022-08-10T00:46:13.899Z,12.5
2022-08-10T00:46:33.977Z,12.49
2022-08-10T00:46:54.075Z,12.46
2022-08-10T00:47:35.747Z,12.46
2022-08-10T00:47:37.604Z,12.45
2022-08-10T00:47:54.218Z,12.45
2022-08-10T00:48:14.319Z,12.48
2022-08-10T00:48:34.397Z,12.46
2022-08-10T00:49:00.742Z,12.46
2022-08-10T00:49:14.551Z,12.45
2022-08-10T00:49:34.602Z,12.43
2022-08-10T00:49:54.677Z,12.45
2022-08-10T00:50:14.736Z,12.43
2022-08-10T00:50:34.860Z,12.4
2022-08-10T00:50:54.918Z,12.42
2022-08-10T00:51:14.964Z,12.4
2022-08-10T00:51:40.409Z,12.39
2022-08-10T00:51:55.084Z,12.39
2022-08-10T00:52:15.159Z,12.39
2022-08-10T00:52:35.459Z,12.39
2022-08-10T00:52:55.277Z,12.4
2022-08-10T00:53:15.335Z,12.43
2022-08-10T00:53:35.478Z,12.42
2022-08-10T00:53:55.523Z,12.38
2022-08-10T00:54:24.149Z,12.4
2022-08-10T00:54:35.624Z,12.4
2022-08-10T00:54:55.693Z,12.38
2022-08-10T00:55:15.729Z,12.36
2022-08-10T00:56:35.000Z,12.32
2022-08-10T00:57:14.555Z,12.33
2022-08-10T00:57:14.846Z,12.35
2022-08-10T00:57:15.486Z,12.32
2022-08-10T00:57:16.560Z,12.32
2022-08-10T00:57:18.643Z,12.32
2022-08-10T00:57:36.236Z,12.28
2022-08-10T00:57:56.303Z,12.31
2022-08-10T00:58:16.368Z,12.29
2022-08-10T00:58:36.455Z,12.28
2022-08-10T00:58:56.529Z,12.29
2022-08-10T00:59:16.597Z,12.28
2022-08-10T00:59:36.661Z,12.27
2022-08-10T00:59:59.095Z,12.24
2022-08-10T01:00:16.823Z,12.25
2022-08-10T01:00:36.915Z,12.24
2022-08-10T01:00:56.972Z,12.24
2022-08-10T01:02:08.498Z,12.22
2022-08-10T01:02:09.472Z,12.24
2022-08-10T01:02:10.190Z,12.22
2022-08-10T01:02:17.233Z,12.21
2022-08-10T01:02:37.506Z,12.21
2022-08-10T01:02:57.468Z,12.21
2022-08-10T01:03:17.388Z,12.19
2022-08-10T01:04:36.496Z,12.18
2022-08-10T01:04:57.483Z,12.17
2022-08-10T01:04:58.531Z,12.15
2022-08-10T01:04:59.956Z,12.15
2022-08-10T01:05:00.722Z,12.15
2022-08-10T01:05:17.846Z,12.14
2022-08-10T01:05:37.908Z,12.14
2022-08-10T01:05:57.994Z,12.12
2022-08-10T01:06:18.054Z,12.14
2022-08-10T01:06:38.139Z,12.15
2022-08-10T01:06:58.217Z,12.14
2022-08-10T01:07:18.283Z,12.14
2022-08-10T01:07:38.374Z,12.15
2022-08-10T01:07:58.448Z,12.12
2022-08-10T01:08:18.516Z,12.14
2022-08-10T01:08:38.570Z,12.15
2022-08-10T01:08:58.660Z,12.14
2022-08-10T01:09:18.746Z,12.11
2022-08-10T01:09:38.802Z,12.14
2022-08-10T01:09:58.863Z,12.11
2022-08-10T01:10:18.900Z,12.09
2022-08-10T01:10:38.975Z,12.09
2022-08-10T01:10:59.055Z,12.09
2022-08-10T01:12:37.658Z,12.09
2022-08-10T01:12:38.684Z,12.09
2022-08-10T01:12:38.943Z,12.08
2022-08-10T01:12:40.292Z,12.08
2022-08-10T01:12:41.598Z,12.08
2022-08-10T01:12:59.409Z,12.08
2022-08-10T01:13:19.494Z,12.06
2022-08-10T01:13:39.596Z,12.06
2022-08-10T01:13:59.637Z,12.05
2022-08-10T01:14:19.695Z,12.04
2022-08-10T01:14:39.754Z,12.02
2022-08-10T01:14:59.799Z,12.02
2022-08-10T01:15:19.867Z,12
2022-08-10T01:15:39.934Z,12
2022-08-10T01:16:00.005Z,12.02
2022-08-10T01:16:20.080Z,12
2022-08-10T01:16:40.107Z,12.02
2022-08-10T01:17:00.174Z,12
2022-08-10T01:17:20.237Z,11.98
2022-08-10T01:17:50.769Z,11.95
2022-08-10T01:18:00.411Z,11.94
2022-08-10T01:18:20.450Z,11.94
2022-08-10T01:18:40.502Z,11.91
2022-08-10T01:19:00.820Z,11.91
2022-08-10T01:19:20.683Z,11.91
2022-08-10T01:19:40.755Z,11.9
2022-08-10T01:20:00.846Z,11.91
2022-08-10T01:20:30.618Z,11.91
2022-08-10T01:20:40.978Z,11.88
2022-08-10T01:21:01.058Z,11.88
2022-08-10T01:21:21.116Z,11.9
2022-08-10T01:21:41.863Z,11.88
2022-08-10T01:22:01.279Z,11.88
2022-08-10T01:22:21.365Z,11.88
2022-08-10T01:22:41.431Z,11.9
2022-08-10T01:23:01.530Z,11.92
2022-08-10T01:23:21.587Z,11.92
2022-08-10T01:23:41.645Z,11.94
2022-08-10T01:24:01.733Z,11.91
2022-08-10T01:24:25.284Z,11.94
2022-08-10T01:24:41.863Z,11.92
2022-08-10T01:25:01.927Z,11.92
2022-08-10T01:25:22.000Z,11.94
2022-08-10T01:26:11.494Z,11.92
2022-08-10T01:26:11.989Z,11.94
2022-08-10T01:26:31.092Z,11.95
2022-08-10T01:26:42.242Z,11.97
2022-08-10T01:27:02.327Z,11.95
2022-08-10T01:27:26.946Z,11.92
2022-08-10T01:27:42.506Z,11.95
2022-08-10T01:28:02.553Z,11.95
2022-08-10T01:28:22.593Z,11.94
2022-08-10T01:28:42.688Z,11.92
2022-08-10T01:29:02.780Z,11.94
2022-08-10T01:29:22.810Z,11.92
2022-08-10T01:29:42.861Z,11.92
2022-08-10T01:30:02.929Z,11.91
2022-08-10T01:30:22.963Z,11.92
2022-08-10T01:30:43.026Z,11.9
2022-08-10T01:31:03.087Z,11.94
2022-08-10T01:31:23.138Z,11.92
2022-08-10T01:31:43.209Z,11.95
2022-08-10T01:32:03.283Z,11.95
2022-08-10T01:32:23.365Z,11.97
2022-08-10T01:32:43.426Z,11.98
2022-08-10T01:33:03.510Z,11.95
2022-08-10T01:33:29.888Z,11.95
2022-08-10T01:33:59.089Z,11.95
2022-08-10T01:34:03.723Z,11.95
2022-08-10T01:34:23.797Z,11.94
2022-08-10T01:34:43.881Z,11.92
2022-08-10T01:35:03.972Z,11.92
2022-08-10T01:35:24.018Z,11.88
2022-08-10T01:35:44.092Z,11.88
2022-08-10T01:36:04.178Z,11.91
2022-08-10T01:36:32.426Z,11.9
2022-08-10T01:36:44.297Z,11.9
2022-08-10T01:37:04.387Z,11.88
2022-08-10T01:37:24.466Z,11.88
2022-08-10T01:37:44.532Z,11.88
2022-08-10T01:38:04.581Z,11.87
2022-08-10T01:38:24.627Z,11.85
2022-08-10T01:38:44.704Z,11.88
2022-08-10T01:39:04.958Z,11.87
2022-08-10T01:39:24.932Z,11.9
2022-08-10T01:39:44.957Z,11.88
2022-08-10T01:40:05.000Z,11.9
2022-08-10T01:40:25.091Z,11.91
2022-08-10T01:40:45.125Z,11.91
2022-08-10T01:41:05.163Z,11.9
2022-08-10T01:41:25.245Z,11.9
2022-08-10T01:41:46.840Z,11.88
2022-08-10T01:42:05.399Z,11.87
2022-08-10T01:42:25.458Z,11.84
2022-08-10T01:42:45.541Z,11.85
2022-08-10T01:43:08.589Z,11.84
2022-08-10T01:43:25.670Z,11.82
2022-08-10T01:43:45.738Z,11.8
2022-08-10T01:44:05.818Z,11.82
2022-08-10T01:44:25.847Z,11.8
2022-08-10T01:44:45.941Z,11.81
2022-08-10T01:45:05.980Z,11.78
2022-08-10T01:45:26.063Z,11.78
2022-08-10T01:45:46.259Z,11.78
2022-08-10T01:46:06.186Z,11.77
2022-08-10T01:46:26.236Z,11.76
2022-08-10T01:46:46.319Z,11.76
2022-08-10T01:47:06.382Z,11.76
2022-08-10T01:47:26.441Z,11.7
2022-08-10T01:47:46.512Z,11.69
2022-08-10T01:48:06.562Z,11.71
2022-08-10T01:48:26.623Z,11.7
2022-08-10T01:48:46.727Z,11.69
2022-08-10T01:49:06.787Z,11.69
2022-08-10T01:49:26.868Z,11.66
2022-08-10T01:49:46.955Z,11.67
2022-08-10T01:50:07.057Z,11.66
2022-08-10T01:50:27.088Z,11.61
2022-08-10T01:50:59.271Z,11.61
2022-08-10T01:51:07.198Z,11.61
2022-08-10T01:51:27.301Z,11.6
2022-08-10T01:51:47.361Z,11.61
2022-08-10T01:52:07.459Z,11.64
2022-08-10T01:52:27.518Z,11.64
2022-08-10T01:52:47.573Z,11.66
2022-08-10T01:53:07.613Z,11.64
2022-08-10T01:53:27.682Z,11.66
2022-08-10T01:53:47.760Z,11.64
2022-08-10T01:54:12.293Z,11.6
2022-08-10T01:54:27.864Z,11.61
2022-08-10T01:54:47.927Z,11.63
2022-08-10T01:55:07.994Z,11.6
2022-08-10T01:55:28.093Z,11.61
2022-08-10T01:55:48.120Z,11.59
2022-08-10T01:56:08.192Z,11.57
2022-08-10T01:56:28.260Z,11.57
2022-08-10T01:56:48.331Z,11.6
2022-08-10T01:57:08.387Z,11.56
2022-08-10T01:57:28.426Z,11.54
2022-08-10T01:57:48.495Z,11.54
2022-08-10T01:58:08.570Z,11.54
2022-08-10T01:58:28.615Z,11.53
2022-08-10T01:58:48.685Z,11.53
2022-08-10T01:59:08.734Z,11.5
2022-08-10T01:59:28.817Z,11.47
2022-08-10T01:59:58.554Z,11.46
2022-08-10T02:00:08.990Z,11.46
2022-08-10T02:00:29.056Z,11.44
2022-08-10T02:00:49.186Z,11.43
2022-08-10T02:01:09.276Z,11.42
2022-08-10T02:01:29.264Z,11.37
2022-08-10T02:01:49.314Z,11.4
2022-08-10T02:02:09.385Z,11.39
2022-08-10T02:02:29.444Z,11.4
2022-08-10T02:02:49.526Z,11.43
2022-08-10T02:03:09.599Z,11.42
2022-08-10T02:03:29.655Z,11.43
2022-08-10T02:04:05.368Z,11.4
2022-08-10T02:04:09.795Z,11.42
2022-08-10T02:04:29.852Z,11.4
2022-08-10T02:04:49.924Z,11.42
2022-08-10T02:05:09.999Z,11.37
2022-08-10T02:05:30.078Z,11.37
2022-08-10T02:05:50.131Z,11.4
2022-08-10T02:06:10.209Z,11.44
2022-08-10T02:06:30.303Z,11.42
2022-08-10T02:06:50.368Z,11.43
2022-08-10T02:07:10.447Z,11.4
2022-08-10T02:07:30.528Z,11.42
2022-08-10T02:07:50.603Z,11.4
2022-08-10T02:08:10.712Z,11.39
2022-08-10T02:08:30.747Z,11.39
2022-08-10T02:08:55.961Z,11.42
2022-08-10T02:09:10.867Z,11.4
2022-08-10T02:09:30.916Z,11.39
2022-08-10T02:09:50.979Z,11.39
2022-08-10T02:10:11.070Z,11.4
2022-08-10T02:10:31.122Z,11.37
2022-08-10T02:10:51.193Z,11.36
2022-08-10T02:11:11.219Z,11.34
2022-08-10T02:12:05.946Z,11.34
2022-08-10T02:12:06.435Z,11.34
2022-08-10T02:12:11.414Z,11.32
2022-08-10T02:12:31.526Z,11.29
2022-08-10T02:12:51.536Z,11.27
2022-08-10T02:13:11.608Z,11.27
2022-08-10T02:13:31.669Z,11.25
2022-08-10T02:13:51.712Z,11.25
2022-08-10T02:14:11.804Z,11.23
2022-08-10T02:14:33.352Z,11.23
2022-08-10T02:14:51.925Z,11.22
2022-08-10T02:15:12.008Z,11.22
2022-08-10T02:15:32.083Z,11.23
2022-08-10T02:16:01.465Z,11.25
2022-08-10T02:16:12.231Z,11.25
2022-08-10T02:16:32.283Z,11.25
2022-08-10T02:16:52.366Z,11.26
2022-08-10T02:17:57.848Z,11.23
2022-08-10T02:17:58.232Z,11.27
2022-08-10T02:17:59.990Z,11.25
2022-08-10T02:18:12.626Z,11.26
2022-08-10T02:18:32.694Z,11.26
2022-08-10T02:18:52.769Z,11.29
2022-08-10T02:19:12.836Z,11.27
2022-08-10T02:19:32.924Z,11.29
2022-08-10T02:19:53.000Z,11.3
2022-08-10T02:20:13.056Z,11.29
2022-08-10T02:20:33.118Z,11.3
2022-08-10T02:20:53.182Z,11.27
2022-08-10T02:21:13.258Z,11.26
2022-08-10T02:21:33.337Z,11.23
2022-08-10T02:22:35.016Z,11.23
2022-08-10T02:22:37.753Z,11.23
2022-08-10T02:22:38.409Z,11.23
2022-08-10T02:22:53.641Z,11.22
2022-08-10T02:23:13.682Z,11.22
2022-08-10T02:23:33.752Z,11.22
2022-08-10T02:23:59.459Z,11.25
2022-08-10T02:24:13.900Z,11.21
2022-08-10T02:24:34.015Z,11.21
2022-08-10T02:24:54.057Z,11.21
2022-08-10T02:25:40.773Z,11.22
2022-08-10T02:25:41.704Z,11.21
2022-08-10T02:25:54.266Z,11.26
2022-08-10T02:26:14.310Z,11.29
2022-08-10T02:26:34.379Z,11.25
2022-08-10T02:26:56.414Z,11.25
2022-08-10T02:27:14.525Z,11.25
2022-08-10T02:27:34.567Z,11.22
2022-08-10T02:27:54.618Z,11.22
2022-08-10T02:28:27.179Z,11.22
2022-08-10T02:28:34.768Z,11.22
2022-08-10T02:28:54.828Z,11.22
2022-08-10T02:29:14.900Z,11.25
2022-08-10T02:29:34.965Z,11.21
2022-08-10T02:29:55.030Z,11.22
2022-08-10T02:30:15.145Z,11.21
2022-08-10T02:30:35.191Z,11.16
2022-08-10T02:30:55.249Z,11.16
2022-08-10T02:31:15.311Z,11.16
2022-08-10T02:31:35.384Z,11.15
2022-08-10T02:31:55.459Z,11.16
2022-08-10T02:32:20.124Z,11.16
2022-08-10T02:32:36.084Z,11.18
2022-08-10T02:32:55.616Z,11.19
2022-08-10T02:33:16.356Z,11.19
2022-08-10T02:33:36.877Z,11.21
2022-08-10T02:33:57.406Z,11.22
2022-08-10T02:34:15.853Z,11.21
2022-08-10T02:34:35.922Z,11.19
2022-08-10T02:34:56.006Z,11.19
2022-08-10T02:35:22.772Z,11.18
2022-08-10T02:35:54.396Z,11.18
2022-08-10T02:35:56.256Z,11.15
2022-08-10T02:36:16.233Z,11.15
2022-08-10T02:36:36.317Z,11.13
2022-08-10T02:36:56.413Z,11.13
2022-08-10T02:37:16.511Z,11.12
2022-08-10T02:37:36.569Z,11.11
2022-08-10T02:37:56.606Z,11.09
2022-08-10T02:38:16.669Z,11.09
2022-08-10T02:38:57.560Z,11.04
2022-08-10T02:38:58.065Z,11.04
2022-08-10T02:39:16.901Z,11.04
2022-08-10T02:39:36.975Z,10.99
2022-08-10T02:39:57.010Z,10.99
2022-08-10T02:42:18.191Z,10.95
2022-08-10T02:45:00.821Z,11.01
2022-08-10T02:45:01.476Z,10.96
2022-08-10T02:45:03.059Z,10.95
2022-08-10T02:45:03.123Z,10.96
2022-08-10T02:45:08.205Z,10.96
2022-08-10T02:45:18.085Z,10.91
2022-08-10T02:45:18.654Z,10.91
2022-08-10T02:45:18.779Z,10.92
2022-08-10T02:45:20.000Z,10.92
2022-08-10T02:45:21.402Z,10.95
2022-08-10T02:45:22.918Z,10.92
2022-08-10T02:45:23.253Z,10.91
2022-08-10T02:45:23.752Z,10.91
2022-08-10T02:45:29.797Z,10.91
2022-08-10T02:45:30.738Z,10.92
2022-08-10T02:45:38.551Z,10.95
2022-08-10T02:45:58.306Z,10.94
2022-08-10T02:46:20.884Z,10.96
2022-08-10T02:46:38.493Z,10.95
2022-08-10T02:46:58.561Z,10.96
2022-08-10T02:47:18.614Z,10.96
2022-08-10T02:47:51.005Z,10.99
2022-08-10T02:47:58.758Z,10.99
2022-08-10T02:48:18.826Z,11.01
2022-08-10T02:48:38.901Z,11.01
2022-08-10T02:48:58.961Z,10.99
2022-08-10T02:49:19.076Z,10.96
2022-08-10T02:49:39.141Z,10.96
2022-08-10T02:50:00.114Z,10.96
2022-08-10T02:50:19.298Z,10.96
2022-08-10T02:50:39.375Z,10.99
2022-08-10T02:50:59.424Z,11.01
2022-08-10T02:51:19.471Z,11.01
2022-08-10T02:52:07.476Z,11.02
2022-08-10T02:52:07.780Z,11.01
2022-08-10T02:52:19.675Z,10.96
2022-08-10T02:52:39.739Z,10.95
2022-08-10T02:52:59.822Z,10.94
2022-08-10T02:53:55.053Z,10.91
2022-08-10T02:53:56.155Z,10.94
2022-08-10T02:54:00.064Z,10.88
2022-08-10T02:54:20.114Z,10.88
2022-08-10T02:54:40.194Z,10.86
2022-08-10T02:55:05.966Z,10.85
2022-08-10T02:55:20.347Z,10.85
2022-08-10T02:55:40.421Z,10.85
2022-08-10T02:56:00.479Z,10.85
2022-08-10T02:56:20.529Z,10.85
2022-08-10T02:56:40.620Z,10.82
2022-08-10T02:57:00.701Z,10.84
2022-08-10T02:57:20.746Z,10.84
2022-08-10T02:58:17.266Z,10.84
2022-08-10T02:58:17.280Z,10.82
2022-08-10T02:58:20.932Z,10.81
2022-08-10T02:58:41.002Z,10.79
2022-08-10T02:59:01.071Z,10.76
2022-08-10T02:59:21.150Z,10.75
2022-08-10T02:59:41.213Z,10.74
2022-08-10T03:00:01.281Z,10.76
2022-08-10T03:00:21.337Z,10.76
2022-08-10T03:00:41.490Z,10.76
2022-08-10T03:01:01.513Z,10.75
2022-08-10T03:01:21.626Z,10.75
2022-08-10T03:01:41.642Z,10.75
2022-08-10T03:02:01.678Z,10.75
2022-08-10T03:02:21.727Z,10.79
2022-08-10T03:02:41.782Z,10.82
2022-08-10T03:03:01.835Z,10.82
2022-08-10T03:03:21.893Z,10.81
2022-08-10T03:03:41.998Z,10.82
2022-08-10T03:04:02.072Z,10.78
2022-08-10T03:04:55.249Z,10.75
2022-08-10T03:04:57.111Z,10.82
2022-08-10T03:05:02.285Z,10.78
2022-08-10T03:05:22.344Z,10.75
2022-08-10T03:05:42.416Z,10.76
2022-08-10T03:06:02.467Z,10.75
2022-08-10T03:06:22.560Z,10.71
2022-08-10T03:06:43.727Z,10.7
2022-08-10T03:07:02.661Z,10.68
2022-08-10T03:07:43.153Z,10.68
2022-08-10T03:07:45.107Z,10.7
2022-08-10T03:08:02.869Z,10.7
2022-08-10T03:08:22.915Z,10.67
2022-08-10T03:08:42.970Z,10.65
2022-08-10T03:09:03.048Z,10.65
2022-08-10T03:09:23.109Z,10.65
2022-08-10T03:09:43.180Z,10.67
2022-08-10T03:10:04.501Z,10.64
2022-08-10T03:10:23.313Z,10.61
2022-08-10T03:10:43.364Z,10.61
2022-08-10T03:11:03.418Z,10.61
2022-08-10T03:12:35.531Z,10.58
2022-08-10T03:12:36.072Z,10.57
2022-08-10T03:12:36.473Z,10.57
2022-08-10T03:12:38.134Z,10.56
2022-08-10T03:12:43.783Z,10.56
2022-08-10T03:13:03.829Z,10.56
2022-08-10T03:13:23.885Z,10.54
2022-08-10T03:13:43.955Z,10.56
2022-08-10T03:14:04.017Z,10.56
2022-08-10T03:14:24.065Z,10.54
2022-08-10T03:14:44.149Z,10.56
2022-08-10T03:15:04.215Z,10.57
2022-08-10T03:15:24.302Z,10.57
2022-08-10T03:15:44.367Z,10.57
2022-08-10T03:16:04.457Z,10.6
2022-08-10T03:16:24.520Z,10.58
2022-08-10T03:16:44.562Z,10.54
2022-08-10T03:17:04.674Z,10.56
2022-08-10T03:17:24.716Z,10.54
2022-08-10T03:17:57.155Z,10.53
2022-08-10T03:18:04.836Z,10.54
2022-08-10T03:18:24.906Z,10.51
2022-08-10T03:18:45.003Z,10.5
2022-08-10T03:19:05.060Z,10.48
2022-08-10T03:20:35.045Z,10.47
2022-08-10T03:20:35.046Z,10.46
2022-08-10T03:20:35.510Z,10.47
2022-08-10T03:20:38.400Z,10.5
2022-08-10T03:20:45.385Z,10.48
2022-08-10T03:21:08.864Z,10.44
2022-08-10T03:21:25.529Z,10.47
2022-08-10T03:21:45.597Z,10.48
2022-08-10T03:22:05.679Z,10.48
2022-08-10T03:22:25.737Z,10.46
2022-08-10T03:22:45.803Z,10.48
2022-08-10T03:23:05.916Z,10.5
2022-08-10T03:23:25.971Z,10.48
2022-08-10T03:23:46.013Z,10.48
2022-08-10T03:24:21.165Z,10.46
2022-08-10T03:24:33.397Z,10.46
2022-08-10T03:24:46.246Z,10.48
2022-08-10T03:25:06.327Z,10.47
2022-08-10T03:25:26.378Z,10.46
2022-08-10T03:25:53.297Z,10.48
2022-08-10T03:26:06.524Z,10.48
2022-08-10T03:26:26.596Z,10.48
2022-08-10T03:26:46.652Z,10.47
2022-08-10T03:27:06.708Z,10.47
2022-08-10T03:27:26.790Z,10.46
2022-08-10T03:27:46.864Z,10.44
2022-08-10T03:28:06.927Z,10.44
2022-08-10T03:28:26.998Z,10.43
2022-08-10T03:28:47.071Z,10.41
2022-08-10T03:29:07.134Z,10.39
2022-08-10T03:29:27.192Z,10.4
2022-08-10T03:30:28.669Z,10.37
2022-08-10T03:30:32.734Z,10.36
2022-08-10T03:30:33.474Z,10.36
2022-08-10T03:30:47.449Z,10.37
2022-08-10T03:31:07.530Z,10.37
2022-08-10T03:31:27.581Z,10.35
2022-08-10T03:31:47.652Z,10.36
2022-08-10T03:32:07.711Z,10.37
2022-08-10T03:32:27.796Z,10.37
2022-08-10T03:32:47.882Z,10.37
2022-08-10T03:33:07.953Z,10.39
2022-08-10T03:33:28.025Z,10.39
2022-08-10T03:33:48.089Z,10.37
2022-08-10T03:34:32.739Z,10.39
2022-08-10T03:34:33.287Z,10.37
2022-08-10T03:34:48.336Z,10.37
2022-08-10T03:35:08.407Z,10.39
2022-08-10T03:35:28.463Z,10.37
2022-08-10T03:36:41.986Z,10.36
2022-08-10T03:36:42.228Z,10.37
2022-08-10T03:36:42.309Z,10.37
2022-08-10T03:36:48.764Z,10.36
2022-08-10T03:37:08.818Z,10.36
2022-08-10T03:37:28.855Z,10.36
2022-08-10T03:37:48.901Z,10.39
2022-08-10T03:38:08.983Z,10.37
2022-08-10T03:38:29.051Z,10.37
2022-08-10T03:38:49.112Z,10.4
2022-08-10T03:39:09.245Z,10.37
2022-08-10T03:39:29.309Z,10.39
2022-08-10T03:39:49.384Z,10.36
2022-08-10T03:40:09.417Z,10.39
2022-08-10T03:40:44.871Z,10.35
2022-08-10T03:40:49.643Z,10.35
2022-08-10T03:41:09.627Z,10.33
2022-08-10T03:41:29.834Z,10.3
2022-08-10T03:41:53.671Z,10.29
2022-08-10T03:42:09.855Z,10.27
2022-08-10T03:42:29.920Z,10.29
2022-08-10T03:42:49.975Z,10.27
2022-08-10T03:43:10.031Z,10.27
2022-08-10T03:43:30.112Z,10.27
2022-08-10T03:43:50.167Z,10.26
2022-08-10T03:44:10.216Z,10.27
2022-08-10T03:44:30.275Z,10.23
2022-08-10T03:44:50.674Z,10.24
2022-08-10T03:45:10.432Z,10.27
2022-08-10T03:45:30.491Z,10.26
2022-08-10T03:45:54.725Z,10.26
2022-08-10T03:46:10.639Z,10.26
2022-08-10T03:46:30.741Z,10.26
2022-08-10T03:46:50.802Z,10.26
2022-08-10T03:47:16.257Z,10.27
2022-08-10T03:47:30.927Z,10.27
2022-08-10T03:47:51.024Z,10.3
2022-08-10T03:48:11.054Z,10.27
2022-08-10T03:48:42.487Z,10.3
2022-08-10T03:48:51.207Z,10.32
2022-08-10T03:49:11.271Z,10.32
2022-08-10T03:49:31.324Z,10.29
2022-08-10T03:49:51.373Z,10.32
2022-08-10T03:50:27.627Z,10.32
2022-08-10T03:50:45.814Z,10.32
2022-08-10T03:50:52.697Z,10.3
2022-08-10T03:51:11.601Z,10.29
2022-08-10T03:51:31.698Z,10.27
2022-08-10T03:51:51.745Z,10.29
2022-08-10T03:52:11.784Z,10.29
2022-08-10T03:52:31.913Z,10.26
2022-08-10T03:52:51.937Z,10.27
2022-08-10T03:53:24.968Z,10.27
2022-08-10T03:54:03.206Z,10.27
2022-08-10T03:54:05.814Z,10.26
2022-08-10T03:54:12.160Z,10.23
2022-08-10T03:54:32.249Z,10.23
2022-08-10T03:54:52.352Z,10.21
2022-08-10T03:55:12.413Z,10.23
2022-08-10T03:56:29.020Z,10.23
2022-08-10T03:56:29.320Z,10.19
2022-08-10T03:56:29.624Z,10.21
2022-08-10T03:56:33.219Z,10.2
2022-08-10T03:56:52.710Z,10.2
2022-08-10T03:57:12.782Z,10.19
2022-08-10T03:57:32.826Z,10.2
2022-08-10T03:57:52.866Z,10.23
2022-08-10T03:58:12.940Z,10.23
2022-08-10T03:58:32.968Z,10.21
2022-08-10T03:58:53.041Z,10.21
2022-08-10T03:59:13.122Z,10.21
2022-08-10T03:59:33.192Z,10.21
2022-08-10T03:59:53.280Z,10.2
2022-08-10T04:00:13.333Z,10.21
2022-08-10T04:00:33.495Z,10.23
2022-08-10T04:00:53.579Z,10.23
2022-08-10T04:01:13.636Z,10.23
2022-08-10T04:02:41.663Z,10.2
2022-08-10T04:02:43.144Z,10.23
2022-08-10T04:02:46.226Z,10.21
2022-08-10T04:02:52.005Z,10.21
2022-08-10T04:02:54.478Z,10.19
2022-08-10T04:03:14.026Z,10.2
2022-08-10T04:03:34.091Z,10.19
2022-08-10T04:04:11.443Z,10.2
2022-08-10T04:04:17.735Z,10.2
2022-08-10T04:04:34.258Z,10.17
2022-08-10T04:04:54.310Z,10.17
2022-08-10T04:05:14.389Z,10.19
2022-08-10T04:05:38.714Z,10.19
2022-08-10T04:05:54.526Z,10.19
2022-08-10T04:06:14.606Z,10.16
2022-08-10T04:06:34.658Z,10.17
2022-08-10T04:06:55.595Z,10.19
2022-08-10T04:07:14.791Z,10.16
2022-08-10T04:07:34.874Z,10.14
2022-08-10T04:07:54.932Z,10.17
2022-08-10T04:08:15.004Z,10.16
2022-08-10T04:08:35.019Z,10.14
2022-08-10T04:08:55.131Z,10.14
2022-08-10T04:09:15.189Z,10.14
2022-08-10T04:09:54.068Z,10.12
2022-08-10T04:09:56.489Z,10.14
2022-08-10T04:10:15.403Z,10.16
2022-08-10T04:10:35.458Z,10.16
2022-08-10T04:10:55.526Z,10.16
2022-08-10T04:11:15.596Z,10.14
2022-08-10T04:11:35.656Z,10.17
2022-08-10T04:11:55.729Z,10.21
2022-08-10T04:12:15.817Z,10.17
2022-08-10T04:12:36.009Z,10.19
2022-08-10T04:12:55.884Z,10.2
2022-08-10T04:13:15.964Z,10.2
2022-08-10T04:13:36.042Z,10.19
2022-08-10T04:13:56.128Z,10.2
2022-08-10T04:14:38.088Z,10.2
2022-08-10T04:14:50.007Z,10.17
2022-08-10T04:14:56.356Z,10.21
2022-08-10T04:15:16.413Z,10.19
2022-08-10T04:15:36.468Z,10.17
2022-08-10T04:15:56.509Z,10.19
2022-08-10T04:16:16.577Z,10.17
2022-08-10T04:16:36.618Z,10.17
2022-08-10T04:16:56.673Z,10.2
2022-08-10T04:17:16.739Z,10.2
2022-08-10T04:17:56.783Z,10.21
2022-08-10T04:18:05.463Z,10.24
2022-08-10T04:18:16.913Z,10.24
2022-08-10T04:18:36.976Z,10.27
2022-08-10T04:18:57.067Z,10.27
2022-08-10T04:19:17.131Z,10.27
2022-08-10T04:19:37.222Z,10.3